createdAt,value
2022-11-28T00:01:43.202Z,8.10
2022-11-28T00:04:12.275Z,6.45
2022-11-28T00:06:45.598Z,7.93
2022-11-28T00:09:14.875Z,7.20
2022-11-28T00:11:45.365Z,7.18
2022-11-28T00:14:14.435Z,8.20
2022-11-28T00:16:41.881Z,8.02
2022-11-28T00:19:11.853Z,7.63
2022-11-28T00:21:40.935Z,7.93
2022-11-28T00:24:09.764Z,7.78
2022-11-28T00:26:41.854Z,8.32
2022-11-28T00:29:10.962Z,8.70
2022-11-28T00:31:42.931Z,7.63
2022-11-28T00:34:15.700Z,7.00
2022-11-28T00:36:47.752Z,8.27
2022-11-28T00:39:17.290Z,7.72
2022-11-28T00:41:45.016Z,8.10
2022-11-28T00:44:13.044Z,9.30
2022-11-28T00:46:40.396Z,7.70
2022-11-28T00:49:07.775Z,7.55
2022-11-28T00:51:36.114Z,7.40
2022-11-28T00:54:06.451Z,6.65
2022-11-28T00:56:40.770Z,5.70
2022-11-28T00:59:08.641Z,6.75
2022-11-28T01:01:43.667Z,6.07
2022-11-28T01:04:16.203Z,6.85
2022-11-28T01:06:49.372Z,6.45
2022-11-28T01:09:21.699Z,6.32
2022-11-28T01:11:53.399Z,6.18
2022-11-28T01:14:24.180Z,6.30
2022-11-28T01:16:51.918Z,5.68
2022-11-28T01:19:19.963Z,6.38
2022-11-28T01:21:47.967Z,5.53
2022-11-28T01:24:15.887Z,6.35
2022-11-28T01:26:44.236Z,5.15
2022-11-28T01:29:12.333Z,5.78
2022-11-28T01:31:40.251Z,5.57
2022-11-28T01:34:07.711Z,5.60
2022-11-28T01:36:35.149Z,5.22
2022-11-28T01:39:02.839Z,6.13
2022-11-28T01:41:30.341Z,5.38
2022-11-28T01:44:15.898Z,5.45
2022-11-28T01:46:44.121Z,5.88
2022-11-28T01:49:31.519Z,6.80
2022-11-28T01:52:09.988Z,5.63
2022-11-28T01:54:40.387Z,5.75
2022-11-28T01:57:16.775Z,5.75
2022-11-28T02:00:15.017Z,6.27
2022-11-28T02:05:33.021Z,5.15
2022-11-28T02:08:00.313Z,6.43
2022-11-28T02:11:09.676Z,6.40
2022-11-28T02:14:22.506Z,6.93
2022-11-28T02:17:11.825Z,6.13
2022-11-28T02:20:42.453Z,6.13
2022-11-28T02:23:40.405Z,5.85
2022-11-28T02:26:34.343Z,5.97
2022-11-28T02:29:48.812Z,4.97
2022-11-28T02:32:54.978Z,6.60
2022-11-28T02:36:13.271Z,5.85
2022-11-28T02:39:31.689Z,5.47
2022-11-28T02:42:15.128Z,4.70
2022-11-28T02:45:09.932Z,6.13
2022-11-28T02:47:54.606Z,4.82
2022-11-28T02:50:35.734Z,4.72
2022-11-28T02:53:28.968Z,5.20
2022-11-28T02:55:59.303Z,4.75
2022-11-28T02:58:27.353Z,5.95
2022-11-28T03:00:55.397Z,4.82
2022-11-28T03:03:37.171Z,4.28
2022-11-28T03:06:47.160Z,5.65
2022-11-28T03:09:26.060Z,4.22
2022-11-28T03:12:25.501Z,4.18
2022-11-28T03:14:58.470Z,4.63
2022-11-28T03:18:33.252Z,4.45
2022-11-28T03:21:25.764Z,4.25
2022-11-28T03:24:02.798Z,4.65
2022-11-28T03:29:51.555Z,4.80
2022-11-28T03:32:37.750Z,5.22
2022-11-28T03:35:31.260Z,5.45
2022-11-28T03:38:32.283Z,6.07
2022-11-28T03:41:09.542Z,5.32
2022-11-28T03:43:50.385Z,6.32
2022-11-28T03:46:24.129Z,5.55
2022-11-28T03:48:59.163Z,4.88
2022-11-28T03:51:55.579Z,5.47
2022-11-28T03:55:00.772Z,5.43
2022-11-28T03:57:35.514Z,4.88
2022-11-28T04:00:15.946Z,5.30
2022-11-28T04:03:11.395Z,5.22
2022-11-28T04:06:04.993Z,5.75
2022-11-28T04:08:45.920Z,5.18
2022-11-28T04:11:44.322Z,5.50
2022-11-28T04:14:52.688Z,6.30
2022-11-28T04:17:37.627Z,5.65
2022-11-28T04:20:43.202Z,5.10
2022-11-28T04:23:17.107Z,5.05
2022-11-28T04:26:07.713Z,4.90
2022-11-28T04:28:37.889Z,5.82
2022-11-28T04:31:08.205Z,6.30
2022-11-28T04:33:42.636Z,6.38
2022-11-28T04:36:13.237Z,5.72
2022-11-28T04:38:45.295Z,6.28
2022-11-28T04:41:24.596Z,6.25
2022-11-28T04:44:03.373Z,6.63
2022-11-28T04:46:46.036Z,6.60
2022-11-28T04:49:13.928Z,6.18
2022-11-28T04:52:19.126Z,6.00
2022-11-28T04:55:38.247Z,6.78
2022-11-28T04:58:40.576Z,6.32
2022-11-28T05:01:14.704Z,6.55
2022-11-28T05:03:43.037Z,7.40
2022-11-28T05:06:10.593Z,6.38
2022-11-28T05:08:38.135Z,6.13
2022-11-28T05:11:05.591Z,6.75
2022-11-28T05:13:32.733Z,6.35
2022-11-28T05:16:01.619Z,5.90
2022-11-28T05:18:28.928Z,6.57
2022-11-28T05:20:59.434Z,6.82
2022-11-28T05:23:26.845Z,5.97
2022-11-28T05:25:54.016Z,6.75
2022-11-28T05:28:21.291Z,6.03
2022-11-28T05:30:58.927Z,6.93
2022-11-28T05:33:26.209Z,5.63
2022-11-28T05:35:53.428Z,6.95
2022-11-28T05:38:20.677Z,6.30
2022-11-28T05:40:47.946Z,6.38
2022-11-28T05:43:15.276Z,6.13
2022-11-28T05:45:44.470Z,5.63
2022-11-28T05:48:12.409Z,5.20
2022-11-28T05:50:42.313Z,7.63
2022-11-28T05:53:10.833Z,6.85
2022-11-28T05:55:40.685Z,6.18
2022-11-28T05:58:08.493Z,6.05
2022-11-28T06:00:36.683Z,6.72
2022-11-28T06:03:05.236Z,6.15
2022-11-28T06:05:42.852Z,5.97
2022-11-28T06:08:12.916Z,6.47
2022-11-28T06:10:41.719Z,5.53
2022-11-28T06:13:09.447Z,6.07
2022-11-28T06:15:38.485Z,6.28
2022-11-28T06:18:06.452Z,6.07
2022-11-28T06:20:35.827Z,6.20
2022-11-28T06:23:03.028Z,7.00
2022-11-28T06:25:30.210Z,6.80
2022-11-28T06:27:57.394Z,6.95
2022-11-28T06:30:24.670Z,7.55
2022-11-28T06:32:51.866Z,7.28
2022-11-28T06:35:19.178Z,6.43
2022-11-28T06:37:46.453Z,7.13
2022-11-28T06:40:14.473Z,6.50
2022-11-28T06:42:41.676Z,6.47
2022-11-28T06:45:09.767Z,7.00
2022-11-28T06:47:37.041Z,6.82
2022-11-28T06:50:05.259Z,6.93
2022-11-28T06:52:32.645Z,6.70
2022-11-28T06:54:59.799Z,6.75
2022-11-28T06:57:28.349Z,8.57
2022-11-28T06:59:55.781Z,7.43
2022-11-28T07:02:25.059Z,7.07
2022-11-28T07:04:52.420Z,7.82
2022-11-28T07:07:20.043Z,8.40
2022-11-28T07:09:47.349Z,7.93
2022-11-28T07:12:14.872Z,8.23
2022-11-28T07:14:42.123Z,7.97
2022-11-28T07:17:09.415Z,8.25
2022-11-28T07:19:36.763Z,8.90
2022-11-28T07:22:04.073Z,8.27
2022-11-28T07:24:31.338Z,9.00
2022-11-28T07:26:58.816Z,9.73
2022-11-28T07:29:30.767Z,8.77
2022-11-28T07:31:58.018Z,9.38
2022-11-28T07:34:25.242Z,8.70
2022-11-28T07:36:52.413Z,9.90
2022-11-28T07:39:19.587Z,9.55
2022-11-28T07:41:46.775Z,9.23
2022-11-28T07:44:17.799Z,9.68
2022-11-28T07:46:46.779Z,9.82
2022-11-28T07:49:15.578Z,9.70
2022-11-28T07:51:42.893Z,10.75
2022-11-28T07:54:10.201Z,10.80
2022-11-28T07:57:10.845Z,10.88
2022-11-28T07:59:26.460Z,10.15
2022-11-28T08:01:53.924Z,10.45
2022-11-28T08:04:21.542Z,10.07
2022-11-28T08:06:48.838Z,11.48
2022-11-28T08:09:16.002Z,9.40
2022-11-28T08:11:43.375Z,10.48
2022-11-28T08:14:11.007Z,12.20
2022-11-28T08:16:41.380Z,10.48
2022-11-28T08:19:08.648Z,11.43
2022-11-28T08:21:37.167Z,11.48
2022-11-28T08:24:07.837Z,11.15
2022-11-28T08:26:36.740Z,11.88
2022-11-28T08:29:04.943Z,12.20
2022-11-28T08:31:36.698Z,11.93
2022-11-28T08:34:09.387Z,11.48
2022-11-28T08:36:37.337Z,10.15
2022-11-28T08:39:23.290Z,11.30
2022-11-28T08:41:51.921Z,12.52
2022-11-28T08:44:19.286Z,12.70
2022-11-28T08:46:46.457Z,12.93
2022-11-28T08:49:13.693Z,11.95
2022-11-28T08:51:40.948Z,11.77
2022-11-28T08:54:08.293Z,13.27
2022-11-28T08:56:35.753Z,13.13
2022-11-28T08:59:03.216Z,11.93
2022-11-28T09:01:30.940Z,12.98
2022-11-28T09:03:58.976Z,12.00
2022-11-28T09:06:26.277Z,13.43
2022-11-28T09:08:54.070Z,14.10
2022-11-28T09:11:23.739Z,12.18
2022-11-28T09:13:51.545Z,13.02
2022-11-28T09:16:19.939Z,12.43
2022-11-28T09:18:47.306Z,13.05
2022-11-28T09:21:16.054Z,12.90
2022-11-28T09:23:45.531Z,12.05
2022-11-28T09:26:19.972Z,11.88
2022-11-28T09:28:47.719Z,12.57
2022-11-28T09:31:18.388Z,12.85
2022-11-28T09:33:49.108Z,13.23
2022-11-28T09:36:24.541Z,12.18
2022-11-28T09:38:52.156Z,13.60
2022-11-28T09:42:23.168Z,12.85
2022-11-28T09:45:23.616Z,12.57
2022-11-28T09:48:07.154Z,13.77
2022-11-28T09:50:41.308Z,13.05
2022-11-28T09:53:37.712Z,13.60
2022-11-28T09:56:22.507Z,13.82
2022-11-28T09:59:03.274Z,14.70
2022-11-28T10:01:55.795Z,13.85
2022-11-28T10:05:12.487Z,14.57
2022-11-28T10:08:49.314Z,13.40
2022-11-28T10:11:38.815Z,14.82
2022-11-28T10:15:20.188Z,14.75
2022-11-28T10:18:08.452Z,13.75
2022-11-28T10:20:48.966Z,13.27
2022-11-28T10:23:33.971Z,13.00
2022-11-28T10:26:31.830Z,14.48
2022-11-28T10:29:07.256Z,14.45
2022-11-28T10:31:44.497Z,12.80
2022-11-28T10:34:35.925Z,14.73
2022-11-28T10:37:29.676Z,14.93
2022-11-28T10:40:24.825Z,14.55
2022-11-28T10:43:35.865Z,15.52
2022-11-28T10:46:33.225Z,14.93
2022-11-28T10:49:46.906Z,13.45
2022-11-28T10:52:46.663Z,13.68
2022-11-28T10:55:51.394Z,13.82
2022-11-28T10:58:31.991Z,13.90
2022-11-28T11:01:00.323Z,13.23
2022-11-28T11:03:33.382Z,13.65
2022-11-28T11:06:00.868Z,12.25
2022-11-28T11:08:34.835Z,14.65
2022-11-28T11:11:33.426Z,15.95
2022-11-28T11:14:11.150Z,14.65
2022-11-28T11:16:52.107Z,15.48
2022-11-28T11:19:36.201Z,16.40
2022-11-28T11:22:21.539Z,16.00
2022-11-28T11:25:17.034Z,16.90
2022-11-28T11:28:01.752Z,15.95
2022-11-28T11:30:42.807Z,15.85
2022-11-28T11:33:17.848Z,15.85
2022-11-28T11:35:49.481Z,17.35
2022-11-28T11:38:23.256Z,16.50
2022-11-28T11:41:31.691Z,17.44
2022-11-28T11:44:19.029Z,17.50
2022-11-28T11:47:08.674Z,17.15
2022-11-28T11:49:44.060Z,17.88
2022-11-28T11:52:26.093Z,18.55
2022-11-28T11:55:16.170Z,18.40
2022-11-28T11:57:53.007Z,19.08
2022-11-28T12:00:43.453Z,19.35
2022-11-28T12:03:57.307Z,17.63
2022-11-28T12:06:40.493Z,18.95
2022-11-28T12:09:27.377Z,23.65
2022-11-28T12:12:13.187Z,20.83
2022-11-28T12:14:41.531Z,22.38
2022-11-28T12:20:49.510Z,23.27
2022-11-28T12:24:04.334Z,21.67
2022-11-28T12:26:47.482Z,26.15
2022-11-28T12:30:12.137Z,26.90
2022-11-28T12:33:27.039Z,26.23
2022-11-28T12:36:27.094Z,28.75
2022-11-28T12:39:17.603Z,29.27
2022-11-28T12:42:09.610Z,27.75
2022-11-28T12:45:39.112Z,29.02
2022-11-28T12:48:30.904Z,29.08
2022-11-28T12:51:41.953Z,29.25
2022-11-28T12:54:48.900Z,30.80
2022-11-28T12:57:54.126Z,32.53
2022-11-28T13:00:26.953Z,35.42
2022-11-28T13:03:33.539Z,35.47
2022-11-28T13:06:42.344Z,35.10
2022-11-28T13:12:36.938Z,35.80
2022-11-28T13:15:17.913Z,36.85
2022-11-28T13:18:11.261Z,38.45
2022-11-28T13:20:56.830Z,36.35
2022-11-28T13:24:11.378Z,36.65
2022-11-28T13:27:24.969Z,39.65
2022-11-28T13:30:49.561Z,38.03
2022-11-28T13:33:54.272Z,39.17
2022-11-28T13:40:08.223Z,35.92
2022-11-28T13:43:08.227Z,37.70
2022-11-28T13:45:45.261Z,39.22
2022-11-28T13:49:05.956Z,37.37
2022-11-28T13:51:32.901Z,41.78
2022-11-28T13:54:32.195Z,38.92
2022-11-28T13:57:30.978Z,37.15
2022-11-28T14:00:23.068Z,39.05
2022-11-28T14:02:59.885Z,40.65
2022-11-28T14:08:04.490Z,38.85
2022-11-28T14:10:47.648Z,39.97
2022-11-28T14:14:07.429Z,41.97
2022-11-28T14:17:27.282Z,41.63
2022-11-28T14:20:32.887Z,40.78
2022-11-28T14:23:49.437Z,43.08
2022-11-28T14:26:39.529Z,41.83
2022-11-28T14:29:32.566Z,45.42
2022-11-28T14:32:28.543Z,43.53
2022-11-28T14:34:49.288Z,42.35
2022-11-28T14:37:29.250Z,41.90
2022-11-28T14:39:58.203Z,41.28
2022-11-28T14:42:58.065Z,42.63
2022-11-28T14:45:44.564Z,45.70
2022-11-28T14:48:29.109Z,45.47
2022-11-28T14:51:01.727Z,43.30
2022-11-28T14:53:51.740Z,46.28
2022-11-28T14:56:28.899Z,42.78
2022-11-28T14:59:02.334Z,48.70
2022-11-28T15:02:11.932Z,45.95
2022-11-28T15:05:30.950Z,43.60
2022-11-28T15:08:38.007Z,42.70
2022-11-28T15:11:46.974Z,46.75
2022-11-28T15:14:30.116Z,41.40
2022-11-28T15:17:04.991Z,39.17
2022-11-28T15:19:46.965Z,39.88
2022-11-28T15:22:43.232Z,40.33
2022-11-28T15:25:37.333Z,42.10
2022-11-28T15:28:20.558Z,44.20
2022-11-28T15:30:53.440Z,43.20
2022-11-28T15:33:22.149Z,44.97
2022-11-28T15:36:13.163Z,41.60
2022-11-28T15:38:43.611Z,39.92
2022-11-28T15:41:11.512Z,43.67
2022-11-28T15:43:45.616Z,45.10
2022-11-28T15:46:34.130Z,37.55
2022-11-28T15:49:01.728Z,45.50
2022-11-28T15:51:38.142Z,38.30
2022-11-28T15:54:39.114Z,40.25
2022-11-28T15:57:26.597Z,44.92
2022-11-28T15:59:56.520Z,42.80
2022-11-28T16:02:36.055Z,40.33
2022-11-28T16:05:21.270Z,40.80
2022-11-28T16:07:51.849Z,41.42
2022-11-28T16:10:35.816Z,40.45
2022-11-28T16:13:15.368Z,40.90
2022-11-28T16:15:50.353Z,42.63
2022-11-28T16:18:18.968Z,43.85
2022-11-28T16:20:47.643Z,40.67
2022-11-28T16:23:35.429Z,39.97
2022-11-28T16:26:25.822Z,42.28
2022-11-28T16:29:08.179Z,40.97
2022-11-28T16:31:36.113Z,39.35
2022-11-28T16:34:03.896Z,40.92
2022-11-28T16:36:37.149Z,43.13
2022-11-28T16:39:10.308Z,40.08
2022-11-28T16:41:44.928Z,38.00
2022-11-28T16:44:15.730Z,41.60
2022-11-28T16:46:57.087Z,43.05
2022-11-28T16:50:03.653Z,41.95
2022-11-28T16:53:05.447Z,38.03
2022-11-28T16:55:32.912Z,40.78
2022-11-28T16:58:27.854Z,38.28
2022-11-28T17:01:02.436Z,39.92
2022-11-28T17:03:52.829Z,38.67
2022-11-28T17:06:37.001Z,41.80
2022-11-28T17:09:10.859Z,39.55
2022-11-28T17:11:46.581Z,39.03
2022-11-28T17:14:14.170Z,38.53
2022-11-28T17:16:44.407Z,38.08
2022-11-28T17:19:11.879Z,41.97
2022-11-28T17:21:43.673Z,39.45
2022-11-28T17:24:27.032Z,38.22
2022-11-28T17:26:54.865Z,38.03
2022-11-28T17:29:25.148Z,36.10
2022-11-28T17:31:55.185Z,32.97
2022-11-28T17:34:32.413Z,34.50
2022-11-28T17:39:29.875Z,35.63
2022-11-28T17:41:59.393Z,35.63
2022-11-28T17:44:35.089Z,36.97
2022-11-28T17:47:03.842Z,36.67
2022-11-28T17:49:31.779Z,34.72
2022-11-28T17:51:59.262Z,34.78
2022-11-28T17:54:27.828Z,35.03
2022-11-28T17:56:55.578Z,36.20
2022-11-28T17:59:24.870Z,35.97
2022-11-28T18:01:52.228Z,36.65
2022-11-28T18:04:24.449Z,35.88
2022-11-28T18:06:51.817Z,33.70
2022-11-28T18:09:19.006Z,36.97
2022-11-28T18:11:49.219Z,35.75
2022-11-28T18:14:19.450Z,36.28
2022-11-28T18:16:47.054Z,33.78
2022-11-28T18:19:14.416Z,36.00
2022-11-28T18:21:41.899Z,35.33
2022-11-28T18:24:09.743Z,35.45
2022-11-28T18:26:37.738Z,33.47
2022-11-28T18:29:06.972Z,35.30
2022-11-28T18:31:37.479Z,32.42
2022-11-28T18:34:09.584Z,31.77
2022-11-28T18:36:39.993Z,30.77
2022-11-28T18:39:14.967Z,31.00
2022-11-28T18:41:42.857Z,29.33
2022-11-28T18:44:11.578Z,30.48
2022-11-28T18:46:42.949Z,31.20
2022-11-28T18:49:12.893Z,28.08
2022-11-28T18:51:40.055Z,29.17
2022-11-28T18:54:09.415Z,29.50
2022-11-28T18:56:36.632Z,28.95
2022-11-28T18:59:05.726Z,26.95
2022-11-28T19:01:35.506Z,30.27
2022-11-28T19:04:09.871Z,26.23
2022-11-28T19:06:40.673Z,30.50
2022-11-28T19:09:15.243Z,28.60
2022-11-28T19:11:43.674Z,29.45
2022-11-28T19:14:17.517Z,26.60
2022-11-28T19:16:46.990Z,29.02
2022-11-28T19:19:17.457Z,26.23
2022-11-28T19:21:44.755Z,31.55
2022-11-28T19:24:14.100Z,32.30
2022-11-28T19:26:41.807Z,29.70
2022-11-28T19:29:09.728Z,28.02
2022-11-28T19:31:41.696Z,31.13
2022-11-28T19:34:16.125Z,29.45
2022-11-28T19:36:51.071Z,28.60
2022-11-28T19:39:23.373Z,29.00
2022-11-28T19:41:55.612Z,31.20
2022-11-28T19:44:24.788Z,30.00
2022-11-28T19:46:53.514Z,30.77
2022-11-28T19:49:24.436Z,30.88
2022-11-28T19:51:54.343Z,31.48
2022-11-28T19:54:21.812Z,32.63
2022-11-28T19:56:49.964Z,30.65
2022-11-28T19:59:19.289Z,33.20
2022-11-28T20:01:49.783Z,29.98
2022-11-28T20:04:19.329Z,33.45
2022-11-28T20:06:46.924Z,32.28
2022-11-28T20:09:14.312Z,30.40
2022-11-28T20:11:44.972Z,36.28
2022-11-28T20:14:19.431Z,33.63
2022-11-28T20:16:47.512Z,34.20
2022-11-28T20:19:16.220Z,34.80
2022-11-28T20:21:46.093Z,36.22
2022-11-28T20:24:14.458Z,36.30
2022-11-28T20:26:44.439Z,34.70
2022-11-28T20:29:18.912Z,31.80
2022-11-28T20:31:48.302Z,36.20
2022-11-28T20:34:18.002Z,35.38
2022-11-28T20:36:51.262Z,35.65
2022-11-28T20:39:19.536Z,36.95
2022-11-28T20:41:46.991Z,34.67
2022-11-28T20:44:14.700Z,36.33
2022-11-28T20:46:44.005Z,37.38
2022-11-28T20:49:11.393Z,37.75
2022-11-28T20:51:39.066Z,35.42
2022-11-28T20:54:07.446Z,34.75
2022-11-28T20:57:12.682Z,39.53
2022-11-28T20:59:29.838Z,41.88
2022-11-28T21:01:57.045Z,37.80
2022-11-28T21:04:24.285Z,40.13
2022-11-28T21:06:51.531Z,37.03
2022-11-28T21:09:20.460Z,39.55
2022-11-28T21:11:58.993Z,38.17
2022-11-28T21:14:28.767Z,41.33
2022-11-28T21:16:58.773Z,41.47
2022-11-28T21:19:26.265Z,39.15
2022-11-28T21:21:53.867Z,42.38
2022-11-28T21:24:21.773Z,38.05
2022-11-28T21:26:53.569Z,42.63
2022-11-28T21:29:24.045Z,38.58
2022-11-28T21:31:52.198Z,41.33
2022-11-28T21:34:19.775Z,37.13
2022-11-28T21:36:48.066Z,42.05
2022-11-28T21:39:20.322Z,39.58
2022-11-28T21:41:48.393Z,41.15
2022-11-28T21:44:15.618Z,41.80
2022-11-28T21:46:43.372Z,42.13
2022-11-28T21:49:12.419Z,39.70
2022-11-28T21:51:40.830Z,42.10
2022-11-28T21:54:12.209Z,44.75
2022-11-28T21:56:39.801Z,41.70
2022-11-28T21:59:07.188Z,42.53
2022-11-28T22:01:34.564Z,46.15
2022-11-28T22:04:03.111Z,41.03
2022-11-28T22:06:32.455Z,42.30
2022-11-28T22:09:08.632Z,42.90
2022-11-28T22:11:38.039Z,40.10
2022-11-28T22:14:05.330Z,41.22
2022-11-28T22:16:33.175Z,41.28
2022-11-28T22:19:01.394Z,42.95
2022-11-28T22:21:50.993Z,44.60
2022-11-28T22:24:17.684Z,43.88
2022-11-28T22:26:44.973Z,46.85
2022-11-28T22:29:14.467Z,46.70
2022-11-28T22:31:41.874Z,45.08
2022-11-28T22:34:09.932Z,42.53
2022-11-28T22:36:37.878Z,41.88
2022-11-28T22:39:06.184Z,43.15
2022-11-28T22:41:33.518Z,43.47
2022-11-28T22:44:04.063Z,41.72
2022-11-28T22:46:32.882Z,41.55
2022-11-28T22:49:02.043Z,44.95
2022-11-28T22:51:32.028Z,45.15
2022-11-28T22:54:02.082Z,45.25
2022-11-28T22:56:35.147Z,43.97
2022-11-28T22:59:04.918Z,44.30
2022-11-28T23:01:34.306Z,46.55
2022-11-28T23:04:01.723Z,49.08
2022-11-28T23:06:34.668Z,45.08
2022-11-28T23:09:07.510Z,45.80
2022-11-28T23:11:39.038Z,47.00
2022-11-28T23:14:07.512Z,45.83
2022-11-28T23:16:39.266Z,53.20
2022-11-28T23:19:26.393Z,48.05
2022-11-28T23:21:54.000Z,49.45
2022-11-28T23:24:23.349Z,55.80
2022-11-28T23:26:52.722Z,60.38
2022-11-28T23:29:20.709Z,55.83
2022-11-28T23:31:49.498Z,55.78
2022-11-28T23:34:16.974Z,48.50
2022-11-28T23:36:47.194Z,49.80
2022-11-28T23:39:22.330Z,44.53
2022-11-28T23:41:51.094Z,51.50
2022-11-28T23:44:20.163Z,50.05
2022-11-28T23:46:48.636Z,51.45
2022-11-28T23:49:16.582Z,53.80
2022-11-28T23:51:43.924Z,61.00
2022-11-28T23:54:12.261Z,55.80
2022-11-28T23:56:41.744Z,60.00
2022-11-28T23:59:12.231Z,44.10
